sensor_id;sensor_type;location;lat;lon;timestamp;pressure;altitude;pressure_sealevel;temperature;humidity
19286;BME280;9776;50.798;6.430;2023-01-30T00:00:49;100629.00;;;4.87;71.86
19286;BME280;9776;50.798;6.430;2023-01-30T00:03:17;100630.44;;;4.91;71.98
19286;BME280;9776;50.798;6.430;2023-01-30T00:05:43;100619.03;;;4.92;71.81
19286;BME280;9776;50.798;6.430;2023-01-30T00:08:10;100603.44;;;4.91;72.10
19286;BME280;9776;50.798;6.430;2023-01-30T00:10:38;100578.13;;;4.91;72.07
19286;BME280;9776;50.798;6.430;2023-01-30T00:13:05;100570.63;;;4.87;72.19
19286;BME280;9776;50.798;6.430;2023-01-30T00:15:32;100562.25;;;4.82;72.32
19286;BME280;9776;50.798;6.430;2023-01-30T00:17:59;100559.09;;;4.77;72.49
19286;BME280;9776;50.798;6.430;2023-01-30T00:20:25;100558.38;;;4.75;72.56
19286;BME280;9776;50.798;6.430;2023-01-30T00:22:52;100539.59;;;4.70;72.69
19286;BME280;9776;50.798;6.430;2023-01-30T00:25:19;100543.75;;;4.59;72.95
19286;BME280;9776;50.798;6.430;2023-01-30T00:27:47;100542.53;;;4.52;73.14
19286;BME280;9776;50.798;6.430;2023-01-30T00:30:14;100535.81;;;4.48;73.42
19286;BME280;9776;50.798;6.430;2023-01-30T00:32:40;100530.31;;;4.53;73.11
19286;BME280;9776;50.798;6.430;2023-01-30T00:35:07;100547.53;;;4.55;73.12
19286;BME280;9776;50.798;6.430;2023-01-30T00:37:34;100545.75;;;4.56;73.00
19286;BME280;9776;50.798;6.430;2023-01-30T00:40:01;100541.06;;;4.61;73.07
19286;BME280;9776;50.798;6.430;2023-01-30T00:42:27;100545.03;;;4.67;73.10
19286;BME280;9776;50.798;6.430;2023-01-30T00:45:13;100552.00;;;4.79;72.94
19286;BME280;9776;50.798;6.430;2023-01-30T00:47:59;100556.19;;;4.81;72.75
19286;BME280;9776;50.798;6.430;2023-01-30T00:50:25;100542.78;;;4.86;72.73
19286;BME280;9776;50.798;6.430;2023-01-30T00:53:07;100534.63;;;4.90;72.68
19286;BME280;9776;50.798;6.430;2023-01-30T00:55:34;100531.03;;;4.91;72.83
19286;BME280;9776;50.798;6.430;2023-01-30T00:58:00;100522.47;;;4.89;72.87
19286;BME280;9776;50.798;6.430;2023-01-30T01:00:29;100531.03;;;4.91;72.92
19286;BME280;9776;50.798;6.430;2023-01-30T01:02:55;100504.59;;;4.96;72.92
19286;BME280;9776;50.798;6.430;2023-01-30T01:05:22;100497.66;;;4.95;72.94
19286;BME280;9776;50.798;6.430;2023-01-30T01:07:49;100502.00;;;4.83;73.29
19286;BME280;9776;50.798;6.430;2023-01-30T01:10:16;100491.97;;;4.77;73.42
19286;BME280;9776;50.798;6.430;2023-01-30T01:12:42;100475.66;;;4.74;73.63
19286;BME280;9776;50.798;6.430;2023-01-30T01:15:10;100494.06;;;4.72;73.59
19286;BME280;9776;50.798;6.430;2023-01-30T01:17:39;100492.53;;;4.70;73.63
19286;BME280;9776;50.798;6.430;2023-01-30T01:20:08;100489.91;;;4.70;73.68
19286;BME280;9776;50.798;6.430;2023-01-30T01:22:35;100499.63;;;4.68;73.80
19286;BME280;9776;50.798;6.430;2023-01-30T01:25:02;100510.91;;;4.68;73.69
19286;BME280;9776;50.798;6.430;2023-01-30T01:27:28;100503.47;;;4.75;73.70
19286;BME280;9776;50.798;6.430;2023-01-30T01:29:55;100516.13;;;4.81;73.55
19286;BME280;9776;50.798;6.430;2023-01-30T01:32:22;100485.16;;;4.87;73.55
19286;BME280;9776;50.798;6.430;2023-01-30T01:34:50;100485.44;;;4.95;73.30
19286;BME280;9776;50.798;6.430;2023-01-30T01:37:17;100495.91;;;4.95;73.42
19286;BME280;9776;50.798;6.430;2023-01-30T01:39:43;100500.06;;;4.98;73.46
19286;BME280;9776;50.798;6.430;2023-01-30T01:42:29;100511.03;;;5.03;73.47
19286;BME280;9776;50.798;6.430;2023-01-30T01:45:11;100517.81;;;5.05;73.36
19286;BME280;9776;50.798;6.430;2023-01-30T01:47:42;100520.56;;;5.04;73.47
19286;BME280;9776;50.798;6.430;2023-01-30T01:50:14;100508.53;;;5.01;73.55
19286;BME280;9776;50.798;6.430;2023-01-30T01:52:41;100514.09;;;4.97;73.85
19286;BME280;9776;50.798;6.430;2023-01-30T01:55:10;100508.84;;;4.97;73.77
19286;BME280;9776;50.798;6.430;2023-01-30T01:57:40;100500.06;;;4.98;73.80
19286;BME280;9776;50.798;6.430;2023-01-30T02:00:11;100493.28;;;4.95;73.96
19286;BME280;9776;50.798;6.430;2023-01-30T02:02:41;100490.25;;;4.89;74.08
19286;BME280;9776;50.798;6.430;2023-01-30T02:05:09;100487.88;;;4.86;74.34
19286;BME280;9776;50.798;6.430;2023-01-30T02:07:42;100506.16;;;4.86;74.28
19286;BME280;9776;50.798;6.430;2023-01-30T02:10:15;100484.41;;;4.85;74.39
19286;BME280;9776;50.798;6.430;2023-01-30T02:12:44;100490.38;;;4.87;74.30
19286;BME280;9776;50.798;6.430;2023-01-30T02:15:11;100495.63;;;4.87;74.14
19286;BME280;9776;50.798;6.430;2023-01-30T02:17:37;100488.59;;;4.88;74.35
19286;BME280;9776;50.798;6.430;2023-01-30T02:20:10;100498.94;;;4.89;74.25
19286;BME280;9776;50.798;6.430;2023-01-30T02:23:07;100480.84;;;4.86;74.11
19286;BME280;9776;50.798;6.430;2023-01-30T02:32:40;100467.16;;;4.83;74.57
19286;BME280;9776;50.798;6.430;2023-01-30T02:35:16;100451.59;;;4.81;74.78
19286;BME280;9776;50.798;6.430;2023-01-30T02:37:54;100468.13;;;4.82;74.80
19286;BME280;9776;50.798;6.430;2023-01-30T02:40:36;100456.81;;;4.81;74.69
19286;BME280;9776;50.798;6.430;2023-01-30T02:43:11;100458.16;;;4.87;74.57
19286;BME280;9776;50.798;6.430;2023-01-30T02:45:45;100447.25;;;4.93;74.52
19286;BME280;9776;50.798;6.430;2023-01-30T02:48:20;100446.28;;;4.94;74.41
19286;BME280;9776;50.798;6.430;2023-01-30T02:50:52;100441.41;;;4.89;74.85
19286;BME280;9776;50.798;6.430;2023-01-30T02:53:21;100440.34;;;4.92;74.90
19286;BME280;9776;50.798;6.430;2023-01-30T02:55:48;100440.34;;;4.92;75.03
19286;BME280;9776;50.798;6.430;2023-01-30T02:58:18;100427.75;;;4.97;74.80
19286;BME280;9776;50.798;6.430;2023-01-30T03:01:04;100420.16;;;4.94;74.81
19286;BME280;9776;50.798;6.430;2023-01-30T03:03:52;100434.19;;;4.93;74.78
19286;BME280;9776;50.798;6.430;2023-01-30T03:06:39;100412.28;;;4.94;74.92
19286;BME280;9776;50.798;6.430;2023-01-30T03:09:15;100398.00;;;4.87;75.23
19286;BME280;9776;50.798;6.430;2023-01-30T03:11:48;100386.94;;;4.83;75.44
19286;BME280;9776;50.798;6.430;2023-01-30T03:14:26;100387.16;;;4.80;75.64
19286;BME280;9776;50.798;6.430;2023-01-30T03:16:56;100376.69;;;4.80;75.90
19286;BME280;9776;50.798;6.430;2023-01-30T03:19:27;100374.91;;;4.81;75.91
19286;BME280;9776;50.798;6.430;2023-01-30T03:21:54;100388.00;;;4.81;76.08
19286;BME280;9776;50.798;6.430;2023-01-30T03:24:21;100375.53;;;4.84;75.89
19286;BME280;9776;50.798;6.430;2023-01-30T03:26:52;100377.81;;;4.89;75.80
19286;BME280;9776;50.798;6.430;2023-01-30T03:29:20;100363.78;;;4.90;75.88
19286;BME280;9776;50.798;6.430;2023-01-30T03:31:46;100366.91;;;4.95;75.81
19286;BME280;9776;50.798;6.430;2023-01-30T03:34:13;100360.28;;;5.02;75.67
19286;BME280;9776;50.798;6.430;2023-01-30T03:36:41;100372.66;;;5.11;75.51
19286;BME280;9776;50.798;6.430;2023-01-30T03:39:08;100375.28;;;5.11;75.49
19286;BME280;9776;50.798;6.430;2023-01-30T03:41:35;100359.56;;;5.11;75.82
19286;BME280;9776;50.798;6.430;2023-01-30T03:44:01;100361.97;;;5.14;75.68
19286;BME280;9776;50.798;6.430;2023-01-30T03:46:28;100364.13;;;5.20;75.46
19286;BME280;9776;50.798;6.430;2023-01-30T03:48:55;100352.00;;;5.19;75.60
19286;BME280;9776;50.798;6.430;2023-01-30T03:51:22;100350.94;;;5.22;75.64
19286;BME280;9776;50.798;6.430;2023-01-30T03:53:50;100344.66;;;5.24;75.74
19286;BME280;9776;50.798;6.430;2023-01-30T03:56:16;100334.88;;;5.26;75.77
19286;BME280;9776;50.798;6.430;2023-01-30T03:58:43;100329.91;;;5.34;75.65
19286;BME280;9776;50.798;6.430;2023-01-30T04:01:10;100328.72;;;5.38;75.49
19286;BME280;9776;50.798;6.430;2023-01-30T04:03:37;100322.56;;;5.39;75.49
19286;BME280;9776;50.798;6.430;2023-01-30T04:06:03;100307.34;;;5.44;75.56
19286;BME280;9776;50.798;6.430;2023-01-30T04:08:30;100311.72;;;5.44;75.53
19286;BME280;9776;50.798;6.430;2023-01-30T04:10:58;100313.75;;;5.40;75.79
19286;BME280;9776;50.798;6.430;2023-01-30T04:13:25;100318.88;;;5.42;75.97
19286;BME280;9776;50.798;6.430;2023-01-30T04:15:52;100326.59;;;5.43;75.84
19286;BME280;9776;50.798;6.430;2023-01-30T04:18:18;100331.50;;;5.48;75.77
19286;BME280;9776;50.798;6.430;2023-01-30T04:20:45;100314.81;;;5.49;75.81
19286;BME280;9776;50.798;6.430;2023-01-30T04:23:12;100328.66;;;5.51;75.85
19286;BME280;9776;50.798;6.430;2023-01-30T04:25:38;100301.72;;;5.49;76.06
19286;BME280;9776;50.798;6.430;2023-01-30T04:28:06;100321.03;;;5.48;76.08
19286;BME280;9776;50.798;6.430;2023-01-30T04:30:33;100300.88;;;5.48;76.09
19286;BME280;9776;50.798;6.430;2023-01-30T04:33:00;100313.03;;;5.49;76.03
19286;BME280;9776;50.798;6.430;2023-01-30T04:35:26;100302.56;;;5.49;76.12
19286;BME280;9776;50.798;6.430;2023-01-30T04:37:53;100307.56;;;5.52;76.19
19286;BME280;9776;50.798;6.430;2023-01-30T04:40:20;100319.72;;;5.53;76.16
19286;BME280;9776;50.798;6.430;2023-01-30T04:42:46;100304.94;;;5.52;76.30
19286;BME280;9776;50.798;6.430;2023-01-30T04:45:14;100306.88;;;5.50;76.32
19286;BME280;9776;50.798;6.430;2023-01-30T04:47:41;100309.72;;;5.47;76.57
19286;BME280;9776;50.798;6.430;2023-01-30T04:50:09;100308.88;;;5.47;76.66
19286;BME280;9776;50.798;6.430;2023-01-30T04:52:36;100313.97;;;5.48;76.59
19286;BME280;9776;50.798;6.430;2023-01-30T04:55:03;100322.56;;;5.50;76.70
19286;BME280;9776;50.798;6.430;2023-01-30T04:57:30;100310.31;;;5.51;76.73
19286;BME280;9776;50.798;6.430;2023-01-30T04:59:56;100312.34;;;5.81;76.59
19286;BME280;9776;50.798;6.430;2023-01-30T05:02:24;100309.47;;;5.61;77.33
19286;BME280;9776;50.798;6.430;2023-01-30T05:04:51;100307.34;;;5.55;77.57
19286;BME280;9776;50.798;6.430;2023-01-30T05:07:18;100304.00;;;5.64;77.21
19286;BME280;9776;50.798;6.430;2023-01-30T05:09:44;100299.25;;;5.47;77.95
19286;BME280;9776;50.798;6.430;2023-01-30T05:12:11;100294.47;;;5.41;77.92
19286;BME280;9776;50.798;6.430;2023-01-30T05:14:38;100282.78;;;5.34;78.01
19286;BME280;9776;50.798;6.430;2023-01-30T05:17:05;100290.16;;;5.29;78.03
19286;BME280;9776;50.798;6.430;2023-01-30T05:19:34;100296.84;;;5.22;78.31
19286;BME280;9776;50.798;6.430;2023-01-30T05:22:00;100301.69;;;5.15;78.43
19286;BME280;9776;50.798;6.430;2023-01-30T05:24:27;100298.94;;;5.17;78.35
19286;BME280;9776;50.798;6.430;2023-01-30T05:26:54;100302.31;;;5.19;78.58
19286;BME280;9776;50.798;6.430;2023-01-30T05:29:21;100297.06;;;5.19;78.41
19286;BME280;9776;50.798;6.430;2023-01-30T05:31:47;100297.53;;;5.24;78.38
19286;BME280;9776;50.798;6.430;2023-01-30T05:34:14;100300.88;;;5.26;78.25
19286;BME280;9776;50.798;6.430;2023-01-30T05:36:42;100291.84;;;5.30;78.17
19286;BME280;9776;50.798;6.430;2023-01-30T05:39:09;100298.03;;;5.29;78.22
19286;BME280;9776;50.798;6.430;2023-01-30T05:41:35;100295.41;;;5.29;78.23
19286;BME280;9776;50.798;6.430;2023-01-30T05:44:03;100297.09;;;5.30;78.34
19286;BME280;9776;50.798;6.430;2023-01-30T05:46:29;100291.00;;;5.30;78.21
19286;BME280;9776;50.798;6.430;2023-01-30T05:48:56;100287.91;;;5.25;78.48
19286;BME280;9776;50.798;6.430;2023-01-30T05:51:24;100285.31;;;5.25;78.55
19286;BME280;9776;50.798;6.430;2023-01-30T05:53:53;100302.56;;;5.27;78.50
19286;BME280;9776;50.798;6.430;2023-01-30T05:56:20;100298.72;;;5.31;78.53
19286;BME280;9776;50.798;6.430;2023-01-30T05:58:50;100301.13;;;5.34;78.24
19286;BME280;9776;50.798;6.430;2023-01-30T06:01:17;100297.09;;;5.30;78.34
19286;BME280;9776;50.798;6.430;2023-01-30T06:03:44;100304.94;;;5.30;78.77
19286;BME280;9776;50.798;6.430;2023-01-30T06:06:11;100302.94;;;5.34;78.40
19286;BME280;9776;50.798;6.430;2023-01-30T06:08:38;100289.09;;;5.32;78.49
19286;BME280;9776;50.798;6.430;2023-01-30T06:11:08;100301.13;;;5.34;78.64
19286;BME280;9776;50.798;6.430;2023-01-30T06:13:35;100310.78;;;5.34;78.43
19286;BME280;9776;50.798;6.430;2023-01-30T06:16:03;100305.41;;;5.35;78.38
19286;BME280;9776;50.798;6.430;2023-01-30T06:18:30;100302.69;;;5.37;78.46
19286;BME280;9776;50.798;6.430;2023-01-30T06:20:56;100304.47;;;5.36;78.64
19286;BME280;9776;50.798;6.430;2023-01-30T06:23:23;100295.53;;;5.39;78.51
19286;BME280;9776;50.798;6.430;2023-01-30T06:25:51;100296.63;;;5.36;78.60
19286;BME280;9776;50.798;6.430;2023-01-30T06:28:20;100303.72;;;5.34;78.76
19286;BME280;9776;50.798;6.430;2023-01-30T06:30:47;100303.97;;;5.31;78.88
19286;BME280;9776;50.798;6.430;2023-01-30T06:33:14;100311.59;;;5.34;78.87
19286;BME280;9776;50.798;6.430;2023-01-30T06:35:41;100328.59;;;5.40;78.92
19286;BME280;9776;50.798;6.430;2023-01-30T06:38:10;100345.66;;;5.45;78.66
19286;BME280;9776;50.798;6.430;2023-01-30T06:40:38;100331.59;;;5.46;78.70
19286;BME280;9776;50.798;6.430;2023-01-30T06:43:05;100327.06;;;5.48;78.75
19286;BME280;9776;50.798;6.430;2023-01-30T06:45:33;100329.44;;;5.51;78.58
19286;BME280;9776;50.798;6.430;2023-01-30T06:48:00;100337.31;;;5.51;78.67
19286;BME280;9776;50.798;6.430;2023-01-30T06:50:28;100334.69;;;5.51;78.75
19286;BME280;9776;50.798;6.430;2023-01-30T06:52:55;100325.78;;;5.54;78.90
19286;BME280;9776;50.798;6.430;2023-01-30T06:55:24;100322.34;;;5.53;78.77
19286;BME280;9776;50.798;6.430;2023-01-30T06:58:00;100325.06;;;5.52;79.04
19286;BME280;9776;50.798;6.430;2023-01-30T07:00:28;100316.50;;;5.50;79.18
19286;BME280;9776;50.798;6.430;2023-01-30T07:02:56;100326.03;;;5.51;79.33
19286;BME280;9776;50.798;6.430;2023-01-30T07:05:23;100343.38;;;5.52;79.29
19286;BME280;9776;50.798;6.430;2023-01-30T07:07:50;100343.75;;;5.58;79.17
19286;BME280;9776;50.798;6.430;2023-01-30T07:10:17;100343.38;;;5.63;79.04
19286;BME280;9776;50.798;6.430;2023-01-30T07:12:44;100343.06;;;5.67;79.04
19286;BME280;9776;50.798;6.430;2023-01-30T07:15:11;100336.63;;;5.71;78.96
19286;BME280;9776;50.798;6.430;2023-01-30T07:17:39;100330.44;;;5.72;79.08
19286;BME280;9776;50.798;6.430;2023-01-30T07:20:09;100337.34;;;5.73;79.10
19286;BME280;9776;50.798;6.430;2023-01-30T07:22:36;100345.22;;;5.73;78.74
19286;BME280;9776;50.798;6.430;2023-01-30T07:25:04;100349.22;;;5.78;78.89
19286;BME280;9776;50.798;6.430;2023-01-30T07:27:31;100358.53;;;5.82;78.99
19286;BME280;9776;50.798;6.430;2023-01-30T07:29:58;100350.44;;;5.85;79.04
19286;BME280;9776;50.798;6.430;2023-01-30T07:32:24;100349.16;;;5.90;78.92
19286;BME280;9776;50.798;6.430;2023-01-30T07:34:51;100336.66;;;5.94;78.97
19286;BME280;9776;50.798;6.430;2023-01-30T07:37:19;100343.06;;;6.01;78.96
19286;BME280;9776;50.798;6.430;2023-01-30T07:39:46;100351.44;;;6.06;78.88
19286;BME280;9776;50.798;6.430;2023-01-30T07:42:12;100352.13;;;6.08;78.99
19286;BME280;9776;50.798;6.430;2023-01-30T07:44:39;100342.50;;;6.08;79.03
19286;BME280;9776;50.798;6.430;2023-01-30T07:47:06;100352.59;;;6.13;79.14
19286;BME280;9776;50.798;6.430;2023-01-30T07:49:32;100362.59;;;6.19;79.00
19286;BME280;9776;50.798;6.430;2023-01-30T07:51:59;100359.03;;;6.31;78.98
19286;BME280;9776;50.798;6.430;2023-01-30T07:54:27;100367.94;;;6.40;78.89
19286;BME280;9776;50.798;6.430;2023-01-30T07:56:54;100365.53;;;6.48;78.80
19286;BME280;9776;50.798;6.430;2023-01-30T07:59:21;100374.69;;;6.53;78.80
19286;BME280;9776;50.798;6.430;2023-01-30T08:01:47;100370.66;;;6.60;78.65
19286;BME280;9776;50.798;6.430;2023-01-30T08:04:14;100370.97;;;6.67;78.75
19286;BME280;9776;50.798;6.430;2023-01-30T08:06:41;100368.59;;;6.75;78.65
19286;BME280;9776;50.798;6.430;2023-01-30T08:09:07;100381.56;;;6.76;78.65
19286;BME280;9776;50.798;6.430;2023-01-30T08:11:36;100381.75;;;6.84;78.59
19286;BME280;9776;50.798;6.430;2023-01-30T08:14:02;100380.56;;;6.89;78.53
19286;BME280;9776;50.798;6.430;2023-01-30T08:16:29;100385.56;;;6.92;78.63
19286;BME280;9776;50.798;6.430;2023-01-30T08:18:58;100391.53;;;6.94;78.62
19286;BME280;9776;50.798;6.430;2023-01-30T08:21:25;100382.56;;;6.96;78.89
19286;BME280;9776;50.798;6.430;2023-01-30T08:23:52;100392.69;;;7.01;78.49
19286;BME280;9776;50.798;6.430;2023-01-30T08:26:19;100376.13;;;7.00;78.65
19286;BME280;9776;50.798;6.430;2023-01-30T08:28:47;100393.41;;;7.03;78.48
19286;BME280;9776;50.798;6.430;2023-01-30T08:31:15;100395.06;;;7.04;78.48
19286;BME280;9776;50.798;6.430;2023-01-30T08:33:42;100388.41;;;7.00;78.72
19286;BME280;9776;50.798;6.430;2023-01-30T08:36:09;100380.97;;;7.05;78.53
19286;BME280;9776;50.798;6.430;2023-01-30T08:38:36;100399.47;;;7.03;78.50
19286;BME280;9776;50.798;6.430;2023-01-30T08:41:04;100389.72;;;6.94;78.60
19286;BME280;9776;50.798;6.430;2023-01-30T08:43:31;100387.84;;;6.85;78.57
19286;BME280;9776;50.798;6.430;2023-01-30T08:46:00;100401.34;;;6.80;78.80
19286;BME280;9776;50.798;6.430;2023-01-30T08:48:26;100407.69;;;6.78;78.74
19286;BME280;9776;50.798;6.430;2023-01-30T08:50:54;100412.78;;;6.79;78.59
19286;BME280;9776;50.798;6.430;2023-01-30T08:53:22;100425.53;;;6.84;78.50
19286;BME280;9776;50.798;6.430;2023-01-30T08:55:49;100423.63;;;6.86;78.33
19286;BME280;9776;50.798;6.430;2023-01-30T08:58:16;100412.06;;;6.89;78.28
19286;BME280;9776;50.798;6.430;2023-01-30T09:00:43;100414.19;;;6.95;78.24
19286;BME280;9776;50.798;6.430;2023-01-30T09:03:13;100413.69;;;7.01;77.97
19286;BME280;9776;50.798;6.430;2023-01-30T09:05:40;100417.47;;;7.08;77.82
19286;BME280;9776;50.798;6.430;2023-01-30T09:08:07;100422.72;;;7.08;77.74
19286;BME280;9776;50.798;6.430;2023-01-30T09:10:34;100429.41;;;7.12;77.64
19286;BME280;9776;50.798;6.430;2023-01-30T09:13:01;100429.50;;;7.10;77.50
19286;BME280;9776;50.798;6.430;2023-01-30T09:15:27;100437.38;;;7.10;77.46
19286;BME280;9776;50.798;6.430;2023-01-30T09:17:54;100427.72;;;7.11;77.51
19286;BME280;9776;50.798;6.430;2023-01-30T09:20:22;100432.28;;;7.09;77.32
19286;BME280;9776;50.798;6.430;2023-01-30T09:22:50;100425.47;;;7.06;77.50
19286;BME280;9776;50.798;6.430;2023-01-30T09:25:16;100437.06;;;7.04;77.31
19286;BME280;9776;50.798;6.430;2023-01-30T09:27:47;100426.56;;;7.04;77.38
19286;BME280;9776;50.798;6.430;2023-01-30T09:30:14;100440.78;;;7.01;77.47
19286;BME280;9776;50.798;6.430;2023-01-30T09:32:41;100420.84;;;6.99;77.57
19286;BME280;9776;50.798;6.430;2023-01-30T09:35:08;100432.91;;;7.01;77.29
19286;BME280;9776;50.798;6.430;2023-01-30T09:37:36;100437.88;;;7.04;77.35
19286;BME280;9776;50.798;6.430;2023-01-30T09:40:04;100436.81;;;7.07;77.05
19286;BME280;9776;50.798;6.430;2023-01-30T09:42:42;100444.31;;;7.11;76.80
19286;BME280;9776;50.798;6.430;2023-01-30T09:45:21;100468.13;;;7.19;76.87
19286;BME280;9776;50.798;6.430;2023-01-30T09:47:58;100473.03;;;7.24;76.49
19286;BME280;9776;50.798;6.430;2023-01-30T09:50:39;100479.44;;;7.31;76.29
19286;BME280;9776;50.798;6.430;2023-01-30T09:53:15;100465.81;;;7.37;75.97
19286;BME280;9776;50.798;6.430;2023-01-30T09:55:44;100461.72;;;7.44;76.07
19286;BME280;9776;50.798;6.430;2023-01-30T09:58:15;100471.47;;;7.53;75.69
19286;BME280;9776;50.798;6.430;2023-01-30T10:00:44;100468.56;;;7.56;75.54
19286;BME280;9776;50.798;6.430;2023-01-30T10:03:14;100453.66;;;7.57;75.28
19286;BME280;9776;50.798;6.430;2023-01-30T10:05:43;100459.50;;;7.60;75.24
19286;BME280;9776;50.798;6.430;2023-01-30T10:08:34;100465.19;;;7.65;74.90
19286;BME280;9776;50.798;6.430;2023-01-30T10:11:11;100444.19;;;7.65;74.62
19286;BME280;9776;50.798;6.430;2023-01-30T10:14:01;100435.78;;;7.71;74.38
19286;BME280;9776;50.798;6.430;2023-01-30T10:16:37;100436.69;;;7.81;73.96
19286;BME280;9776;50.798;6.430;2023-01-30T10:19:27;100455.72;;;7.94;73.53
19286;BME280;9776;50.798;6.430;2023-01-30T10:22:10;100456.63;;;8.14;73.03
19286;BME280;9776;50.798;6.430;2023-01-30T10:24:51;100455.00;;;8.34;72.26
19286;BME280;9776;50.798;6.430;2023-01-30T10:27:24;100475.47;;;8.70;71.18
19286;BME280;9776;50.798;6.430;2023-01-30T10:29:53;100455.56;;;8.87;70.60
19286;BME280;9776;50.798;6.430;2023-01-30T10:32:25;100458.63;;;9.01;69.97
19286;BME280;9776;50.798;6.430;2023-01-30T10:34:57;100473.72;;;8.90;70.07
19286;BME280;9776;50.798;6.430;2023-01-30T10:37:29;100463.72;;;8.74;69.93
19286;BME280;9776;50.798;6.430;2023-01-30T10:40:03;100478.78;;;8.72;70.23
19286;BME280;9776;50.798;6.430;2023-01-30T10:42:37;100476.75;;;8.95;69.18
19286;BME280;9776;50.798;6.430;2023-01-30T10:45:11;100468.91;;;9.04;68.60
19286;BME280;9776;50.798;6.430;2023-01-30T10:47:50;100456.72;;;9.42;67.57
19286;BME280;9776;50.798;6.430;2023-01-30T10:50:25;100460.75;;;10.31;65.89
19286;BME280;9776;50.798;6.430;2023-01-30T10:52:58;100449.03;;;11.68;62.23
19286;BME280;9776;50.798;6.430;2023-01-30T10:55:33;100469.31;;;12.62;59.21
19286;BME280;9776;50.798;6.430;2023-01-30T10:58:07;100463.28;;;12.18;59.77
19286;BME280;9776;50.798;6.430;2023-01-30T11:00:39;100468.53;;;11.67;60.92
19286;BME280;9776;50.798;6.430;2023-01-30T11:03:17;100476.66;;;11.03;62.25
19286;BME280;9776;50.798;6.430;2023-01-30T11:05:48;100472.88;;;10.60;63.27
19286;BME280;9776;50.798;6.430;2023-01-30T11:08:23;100471.31;;;10.31;63.72
19286;BME280;9776;50.798;6.430;2023-01-30T11:10:53;100478.75;;;9.98;63.95
19286;BME280;9776;50.798;6.430;2023-01-30T11:13:21;100476.94;;;9.70;64.37
19286;BME280;9776;50.798;6.430;2023-01-30T11:15:53;100471.72;;;9.60;64.43
19286;BME280;9776;50.798;6.430;2023-01-30T11:18:22;100471.28;;;9.65;64.45
19286;BME280;9776;50.798;6.430;2023-01-30T11:21:00;100460.63;;;9.57;63.95
19286;BME280;9776;50.798;6.430;2023-01-30T11:23:31;100460.84;;;9.73;63.68
19286;BME280;9776;50.798;6.430;2023-01-30T11:26:01;100463.00;;;10.25;62.23
19286;BME280;9776;50.798;6.430;2023-01-30T11:28:34;100469.66;;;10.10;61.83
19286;BME280;9776;50.798;6.430;2023-01-30T11:31:01;100466.63;;;10.05;62.03
19286;BME280;9776;50.798;6.430;2023-01-30T11:33:31;100467.53;;;9.77;62.69
19286;BME280;9776;50.798;6.430;2023-01-30T11:36:00;100474.19;;;9.52;63.31
19286;BME280;9776;50.798;6.430;2023-01-30T11:38:28;100470.75;;;9.42;63.30
19286;BME280;9776;50.798;6.430;2023-01-30T11:41:17;100467.00;;;9.26;63.21
19286;BME280;9776;50.798;6.430;2023-01-30T11:43:45;100478.19;;;9.18;63.54
19286;BME280;9776;50.798;6.430;2023-01-30T11:46:15;100469.75;;;9.15;63.51
19286;BME280;9776;50.798;6.430;2023-01-30T11:48:47;100472.66;;;9.11;63.21
19286;BME280;9776;50.798;6.430;2023-01-30T11:51:15;100475.84;;;9.05;63.30
19286;BME280;9776;50.798;6.430;2023-01-30T11:53:44;100475.13;;;9.03;63.06
19286;BME280;9776;50.798;6.430;2023-01-30T11:56:21;100465.44;;;8.94;63.14
19286;BME280;9776;50.798;6.430;2023-01-30T11:58:53;100470.81;;;8.93;63.10
19286;BME280;9776;50.798;6.430;2023-01-30T12:01:25;100467.78;;;8.97;62.84
19286;BME280;9776;50.798;6.430;2023-01-30T12:03:53;100479.84;;;9.00;62.73
19286;BME280;9776;50.798;6.430;2023-01-30T12:06:23;100483.84;;;8.94;62.73
19286;BME280;9776;50.798;6.430;2023-01-30T12:08:51;100476.66;;;8.96;62.55
19286;BME280;9776;50.798;6.430;2023-01-30T12:11:40;100482.72;;;8.87;62.53
19286;BME280;9776;50.798;6.430;2023-01-30T12:14:18;100494.03;;;8.78;62.73
19286;BME280;9776;50.798;6.430;2023-01-30T12:17:03;100483.88;;;8.64;62.85
19286;BME280;9776;50.798;6.430;2023-01-30T12:19:44;100490.09;;;8.53;62.92
19286;BME280;9776;50.798;6.430;2023-01-30T12:22:21;100487.00;;;8.48;63.21
19286;BME280;9776;50.798;6.430;2023-01-30T12:24:57;100481.19;;;8.45;63.18
19286;BME280;9776;50.798;6.430;2023-01-30T12:27:32;100479.78;;;8.41;63.12
19286;BME280;9776;50.798;6.430;2023-01-30T12:30:09;100479.94;;;8.39;62.92
19286;BME280;9776;50.798;6.430;2023-01-30T12:32:38;100488.88;;;8.37;63.22
19286;BME280;9776;50.798;6.430;2023-01-30T12:35:13;100475.00;;;8.25;63.23
19286;BME280;9776;50.798;6.430;2023-01-30T12:37:53;100480.81;;;8.29;63.23
19286;BME280;9776;50.798;6.430;2023-01-30T12:40:32;100482.72;;;8.27;63.16
19286;BME280;9776;50.798;6.430;2023-01-30T12:46:02;100492.75;;;8.12;63.44
19286;BME280;9776;50.798;6.430;2023-01-30T12:48:47;100488.16;;;8.05;63.64
19286;BME280;9776;50.798;6.430;2023-01-30T12:51:32;100496.59;;;8.08;63.79
19286;BME280;9776;50.798;6.430;2023-01-30T12:54:11;100509.47;;;8.11;63.78
19286;BME280;9776;50.798;6.430;2023-01-30T12:56:52;100499.81;;;8.12;63.57
19286;BME280;9776;50.798;6.430;2023-01-30T12:59:29;100513.78;;;8.12;63.72
19286;BME280;9776;50.798;6.430;2023-01-30T13:02:15;100517.75;;;8.07;63.44
19286;BME280;9776;50.798;6.430;2023-01-30T13:04:56;100522.44;;;8.03;63.71
19286;BME280;9776;50.798;6.430;2023-01-30T13:07:37;100520.53;;;8.05;63.57
19286;BME280;9776;50.798;6.430;2023-01-30T13:10:13;100509.19;;;8.05;63.53
19286;BME280;9776;50.798;6.430;2023-01-30T13:12:48;100512.44;;;8.18;63.29
19286;BME280;9776;50.798;6.430;2023-01-30T13:15:21;100510.50;;;8.20;63.11
19286;BME280;9776;50.798;6.430;2023-01-30T13:18:05;100514.94;;;8.19;63.31
19286;BME280;9776;50.798;6.430;2023-01-30T13:20:51;100514.81;;;8.21;63.06
19286;BME280;9776;50.798;6.430;2023-01-30T13:23:24;100511.81;;;8.25;63.01
19286;BME280;9776;50.798;6.430;2023-01-30T13:25:58;100511.28;;;8.31;62.94
19286;BME280;9776;50.798;6.430;2023-01-30T13:28:33;100516.59;;;8.41;62.75
19286;BME280;9776;50.798;6.430;2023-01-30T13:31:04;100519.66;;;8.46;62.61
19286;BME280;9776;50.798;6.430;2023-01-30T13:33:34;100537.66;;;8.41;62.41
19286;BME280;9776;50.798;6.430;2023-01-30T13:36:09;100539.16;;;8.34;62.39